createdAt,value
2023-05-17T00:13:09.255Z,12.26
2023-05-17T00:33:12.054Z,12.34
2023-05-17T00:53:17.941Z,12.20
2023-05-17T01:13:21.257Z,12.06
2023-05-17T01:33:24.027Z,12.40
2023-05-17T01:53:27.486Z,12.32
2023-05-17T02:13:30.198Z,12.20
2023-05-17T02:33:33.196Z,12.44
2023-05-17T02:53:36.823Z,12.28
2023-05-17T03:13:39.594Z,12.39
2023-05-17T03:33:42.685Z,12.33
2023-05-17T03:53:45.646Z,11.97
2023-05-17T04:13:48.368Z,12.04
2023-05-17T04:33:51.147Z,12.32
2023-05-17T04:53:54.094Z,11.78
2023-05-17T05:13:56.854Z,11.62
2023-05-17T05:33:59.737Z,11.65
2023-05-17T05:54:02.603Z,11.44
2023-05-17T06:14:05.307Z,11.41
2023-05-17T06:34:08.407Z,11.48
2023-05-17T06:54:11.437Z,11.46
2023-05-17T07:14:14.688Z,11.60
2023-05-17T07:34:17.526Z,11.44
2023-05-17T07:54:20.388Z,10.78
2023-05-17T08:14:23.070Z,10.45
2023-05-17T10:36:20.707Z,10.38
2023-05-17T13:39:06.617Z,9.64
2023-05-17T13:59:09.487Z,9.37
2023-05-17T14:19:14.664Z,9.68
2023-05-17T14:39:21.754Z,9.82
2023-05-17T16:41:08.912Z,10.11
2023-05-17T17:21:27.995Z,10.27
2023-05-17T18:42:22.605Z,9.59
2023-05-17T19:02:26.003Z,10.26
2023-05-17T19:22:28.698Z,10.46
2023-05-17T19:42:32.117Z,10.55
2023-05-17T20:02:35.167Z,10.53
2023-05-17T20:22:39.114Z,10.64
2023-05-17T20:42:42.100Z,10.83
2023-05-17T21:02:45.669Z,10.90
2023-05-17T21:22:48.638Z,10.86
2023-05-17T21:42:51.511Z,10.80
2023-05-17T22:02:54.644Z,10.38
2023-05-17T22:22:57.360Z,10.24
2023-05-17T22:43:00.111Z,10.17
2023-05-17T23:03:03.186Z,10.20
2023-05-17T23:23:06.358Z,9.98
2023-05-17T23:43:11.455Z,9.77
